»·PEaware :: N117LY CL46-KPTV

N117LY :: CL46-KPTV

FLIGHT INFORMATION

Flight Status: Arrived
Operator: Privately registered:
United States
More flights under this callsign
Pilot: Alethea M. (28491)
Aircraft: CESSNA 162 Skycatcher
(C162)
More flights by this aircraft type
Origin: CL46 Quail Lake Sky Park
United States
Destination: KPTV Porterville Mun
United States
More flights between these airports :: More routes between these airports
Route: GMN EHF TTE
File this flight plan on PilotEdge
Remarks:
Altitude:
(Current/Filed)
6,500ft
Speed:
(Current/Filed)
110kts
Departed: 29-May-20 06:22 PM
Arrived: 29-May-20 07:19 PM
Distance/Time
Traveled:
77nm/0:57
Distance/Time
To Go:
Arrived

Flight Plot

Page will automatically refresh every two minutes.


Map Options




Map Legend


Flown Route
Filed Route
Departure Airport
Arrival Airport
Navaid (VOR, NDB)
Fix

Horizontal Profiles

Position Reports

Time Latitude Longitude Heading Altitude Ground
Speed
29-May-20 18:16 34.767317 -118.736191 76 3359ft 0kts
29-May-20 18:17 34.767317 -118.736191 76 3359ft 0kts
29-May-20 18:18 34.767611 -118.735748 11 3356ft 1kts
29-May-20 18:19 34.768153 -118.735285 88 3352ft 7kts
29-May-20 18:20 34.767478 -118.730432 100 3350ft 13kts
29-May-20 18:21 34.767068 -118.727500 110 3366ft 8kts
29-May-20 18:21 34.767658 -118.731316 281 3401ft 63kts
29-May-20 18:23 34.772226 -118.757367 277 4230ft 76kts
29-May-20 18:24 34.774830 -118.783727 277 4996ft 78kts
29-May-20 18:24 34.778506 -118.805888 285 5600ft 83kts
29-May-20 18:26 34.790994 -118.834837 304 6382ft 86kts
29-May-20 18:26 34.806576 -118.851298 332 6459ft 94kts
29-May-20 18:27 34.831966 -118.863233 350 6477ft 97kts
29-May-20 18:28 34.860925 -118.862257 359 6346ft 103kts
29-May-20 18:29 34.888805 -118.861838 348 6391ft 98kts
29-May-20 18:30 34.914131 -118.873322 333 6497ft 90kts
29-May-20 18:31 34.936544 -118.886809 328 6645ft 93kts
29-May-20 18:32 34.958392 -118.901627 332 6626ft 100kts
29-May-20 18:33 34.982888 -118.917227 333 6604ft 100kts
29-May-20 18:34 35.007983 -118.930401 338 6601ft 98kts
29-May-20 18:35 35.033618 -118.941753 338 6589ft 98kts
29-May-20 18:36 35.059161 -118.953617 338 6573ft 98kts
29-May-20 18:37 35.084931 -118.964427 342 6543ft 98kts
29-May-20 18:38 35.110053 -118.974282 342 6519ft 97kts
29-May-20 18:39 35.135951 -118.983377 344 6521ft 94kts
29-May-20 18:40 35.161344 -118.991433 344 6499ft 96kts
29-May-20 18:41 35.187119 -118.999442 344 6494ft 95kts
29-May-20 18:42 35.211994 -119.007732 342 6485ft 96kts
29-May-20 18:43 35.236898 -119.016536 344 6463ft 96kts
29-May-20 18:44 35.261991 -119.023995 349 6444ft 96kts
29-May-20 18:45 35.285626 -119.028945 352 6467ft 93kts
29-May-20 18:46 35.309089 -119.033690 350 6477ft 94kts
29-May-20 18:47 35.332357 -119.038468 355 6470ft 95kts
29-May-20 18:48 35.356618 -119.040986 355 6470ft 94kts
29-May-20 18:49 35.381689 -119.043125 355 6462ft 95kts
29-May-20 18:50 35.407368 -119.046373 342 6458ft 96kts
29-May-20 18:51 35.432429 -119.055592 343 6475ft 95kts
29-May-20 18:52 35.457486 -119.065109 342 6484ft 95kts
29-May-20 18:53 35.481481 -119.076025 334 6500ft 94kts
29-May-20 18:54 35.504712 -119.091433 342 6497ft 95kts
29-May-20 18:55 35.530339 -119.094687 354 6478ft 92kts
29-May-20 18:56 35.555848 -119.089464 11 6461ft 95kts
29-May-20 18:57 35.581301 -119.082648 6 6475ft 92kts
29-May-20 18:58 35.606918 -119.078013 6 6491ft 92kts
29-May-20 18:59 35.632488 -119.073945 5 6465ft 94kts
29-May-20 19:00 35.658295 -119.071104 0 6492ft 92kts
29-May-20 19:01 35.683497 -119.069147 10 6499ft 93kts
29-May-20 19:02 35.708715 -119.059988 15 6498ft 93kts
29-May-20 19:03 35.733804 -119.050589 15 6492ft 95kts
29-May-20 19:04 35.759239 -119.042665 10 6487ft 96kts
29-May-20 19:05 35.785152 -119.035996 11 6485ft 96kts
29-May-20 19:06 35.811192 -119.028846 2 6458ft 96kts
29-May-20 19:07 35.837604 -119.026283 3 6456ft 96kts
29-May-20 19:08 35.864353 -119.020710 9 6161ft 97kts
29-May-20 19:09 35.890583 -119.011561 11 5562ft 100kts
29-May-20 19:10 35.917031 -119.012606 333 4615ft 97kts
29-May-20 19:11 35.938139 -119.029875 323 3370ft 91kts
29-May-20 19:12 35.960007 -119.048323 319 2415ft 97kts
29-May-20 19:13 35.981623 -119.067276 322 1675ft 90kts
29-May-20 19:14 36.001011 -119.084916 317 1487ft 77kts
29-May-20 19:15 36.019326 -119.083457 60 1367ft 101kts
29-May-20 19:16 36.009942 -119.056465 121 1305ft 88kts
29-May-20 19:17 36.023456 -119.054688 315 525ft 57kts
29-May-20 19:18 36.029103 -119.061016 48 442ft 8kts
29-May-20 19:19 36.029945 -119.059774 48 443ft 8kts
29-May-20 19:20 36.031291 -119.059623 138 443ft 0kts
29-May-20 19:21 36.031291 -119.059623 138 443ft 0kts
29-May-20 19:22 36.031291 -119.059623 138 443ft 0kts

Navigation Log

Ident Type
Flight plan parsing failed, navigation log unavailable